Time;durP1;ratioP1;P1;durP2;ratioP2;P2;SDS_P1;SDS_P2;PMS_P1;PMS_P2;Temp;Humidity;BMP_temperature;BMP_pressure;BME280_temperature;BME280_humidity;BME280_pressure;Samples;Min_cycle;Max_cycle;Signal;HPM_P1;HPM_P2
2023/07/27 00:01:30;;;;;;;5.35;3.40;;;;;;;21.10;85.85;99747.16;10411660;28;20370;-71
2023/07/27 00:06:31;;;;;;;7.15;3.67;;;;;;;21.06;86.04;99743.31;10409977;28;20037;-71
2023/07/27 00:11:32;;;;;;;5.35;3.60;;;;;;;20.95;86.51;99732.41;10411476;28;20037;-71
2023/07/27 00:16:32;;;;;;;4.82;3.35;;;;;;;20.97;86.95;99746.47;10410592;28;20113;-71
2023/07/27 00:21:33;;;;;;;5.82;3.22;;;;;;;20.82;87.55;99737.34;10411259;28;20107;-71
2023/07/27 00:26:34;;;;;;;5.03;3.45;;;;;;;20.89;87.84;99752.31;10410352;28;20137;-71
2023/07/27 00:31:35;;;;;;;24.23;4.15;;;;;;;20.84;88.13;99754.13;10411235;28;20416;-71
2023/07/27 00:36:35;;;;;;;6.82;3.50;;;;;;;20.84;88.90;99759.53;10410550;28;20037;-71
2023/07/27 00:41:41;;;;;;;4.90;3.53;;;;;;;20.90;90.47;99772.84;10409748;28;20475;-71
2023/07/27 00:46:42;;;;;;;6.32;3.63;;;;;;;20.86;89.41;99768.19;10410827;28;20052;-71
2023/07/27 00:51:44;;;;;;;7.00;4.00;;;;;;;20.74;89.17;99774.53;10410023;28;20041;-71
2023/07/27 00:56:45;;;;;;;6.88;3.90;;;;;;;20.37;89.34;99716.72;10409329;28;20049;-71
2023/07/27 01:01:46;;;;;;;7.32;4.10;;;;;;;20.61;89.87;99782.13;10409958;28;20116;-71
2023/07/27 01:06:46;;;;;;;8.88;4.32;;;;;;;20.49;89.79;99774.94;10409137;28;20045;-71
2023/07/27 01:12:07;;;;;;;37.55;5.80;;;;;;;20.45;92.15;99781.06;10409326;28;20041;-71
2023/07/27 01:17:18;;;;;;;47.10;6.50;;;;;;;19.94;90.73;99716.34;10409577;28;20053;-71
2023/07/27 01:22:31;;;;;;;9.63;4.53;;;;;;;20.28;92.08;99778.38;10409351;28;20041;-71
2023/07/27 01:28:05;;;;;;;17.75;4.75;;;;;;;20.33;94.96;99780.34;10409341;28;20106;-71
2023/07/27 01:33:10;;;;;;;42.88;7.22;;;;;;;20.17;92.26;99761.22;10408446;28;20540;-71
2023/07/27 01:38:12;;;;;;;10.02;4.70;;;;;;;20.41;91.52;99788.84;10408466;28;20037;-71
2023/07/27 01:43:14;;;;;;;9.15;4.78;;;;;;;20.42;91.78;99792.34;10409067;28;20045;-71
2023/07/27 01:48:16;;;;;;;6.57;5.05;;;;;;;20.30;92.13;99789.75;10408344;28;20037;-71
2023/07/27 01:53:19;;;;;;;49.42;7.07;;;;;;;20.29;92.16;99774.63;10408357;28;20481;-71
2023/07/27 01:58:21;;;;;;;29.57;6.30;;;;;;;20.04;91.96;99735.41;10408217;28;20066;-71
2023/07/27 02:03:23;;;;;;;60.85;6.72;;;;;;;20.40;92.36;99807.97;10597022;27;20046;-71
2023/07/27 02:08:24;;;;;;;23.58;6.00;;;;;;;20.43;92.42;99812.88;10622959;27;20141;-71
2023/07/27 02:13:33;;;;;;;22.73;6.53;;;;;;;19.59;94.37;99685.03;10621976;27;20139;-71
2023/07/27 02:18:36;;;;;;;17.05;6.38;;;;;;;20.27;93.75;99819.91;10621927;27;20047;-71
2023/07/27 02:23:39;;;;;;;23.20;7.03;;;;;;;20.19;94.44;99794.16;10622605;27;20043;-71
2023/07/27 02:28:39;;;;;;;10.45;5.70;;;;;;;20.51;94.53;99818.66;10621859;27;20035;-71
2023/07/27 02:33:40;;;;;;;89.32;9.82;;;;;;;20.79;93.87;99824.22;10621811;27;20069;-71
2023/07/27 02:38:41;;;;;;;32.97;7.35;;;;;;;21.05;93.35;99812.72;10622018;27;20035;-71
2023/07/27 02:43:41;;;;;;;13.55;5.57;;;;;;;21.06;92.45;99770.31;10621451;27;20418;-72
2023/07/27 02:48:42;;;;;;;11.80;5.85;;;;;;;21.52;91.79;99782.53;10621301;27;20037;-71
2023/07/27 02:53:43;;;;;;;6.88;5.00;;;;;;;22.13;90.23;99787.69;10622268;27;20035;-71
2023/07/27 02:58:44;;;;;;;11.50;5.60;;;;;;;22.27;87.57;99731.31;10621538;27;20074;-72
2023/07/27 03:03:44;;;;;;;15.48;5.15;;;;;;;23.57;84.31;99811.88;10621607;27;20039;-72
2023/07/27 03:08:45;;;;;;;8.43;5.07;;;;;;;24.18;81.52;99794.09;10620934;27;20039;-71
2023/07/27 03:13:46;;;;;;;6.72;4.38;;;;;;;25.03;77.97;99805.94;10621603;27;20055;-72
2023/07/27 03:18:47;;;;;;;7.70;4.60;;;;;;;25.67;75.46;99798.06;10539552;27;20038;-71
2023/07/27 03:23:49;;;;;;;9.77;4.20;;;;;;;26.42;72.36;99749.59;10401341;28;20504;-72
2023/07/27 03:28:50;;;;;;;15.03;4.33;;;;;;;27.01;70.21;99750.34;10405263;28;20038;-73
2023/07/27 03:33:51;;;;;;;17.23;4.53;;;;;;;27.86;68.20;99816.09;10405945;28;20042;-72
2023/07/27 03:38:51;;;;;;;12.10;4.07;;;;;;;28.02;67.12;99811.19;10405646;28;20085;-72
2023/07/27 03:43:52;;;;;;;5.15;3.40;;;;;;;28.38;65.79;99819.63;10399760;28;20082;-73
2023/07/27 03:48:54;;;;;;;12.93;3.70;;;;;;;29.16;64.22;99828.06;10396251;28;20113;-73
2023/07/27 03:53:55;;;;;;;8.02;3.13;;;;;;;28.94;63.47;99742.06;10389074;28;20037;-72
2023/07/27 03:58:56;;;;;;;6.28;3.35;;;;;;;29.58;62.08;99841.41;10390466;28;20033;-72
2023/07/27 04:03:57;;;;;;;11.30;3.33;;;;;;;29.54;61.63;99818.50;10411309;27;20488;-74
2023/07/27 04:08:57;;;;;;;6.75;3.25;;;;;;;28.97;62.15;99823.50;10411691;28;20112;-72
2023/07/27 04:13:58;;;;;;;28.80;4.10;;;;;;;29.31;61.45;99835.97;10408217;28;20053;-72
2023/07/27 04:18:59;;;;;;;6.57;2.53;;;;;;;29.53;59.83;99775.84;10406843;28;20045;-72
2023/07/27 04:23:59;;;;;;;4.40;2.83;;;;;;;30.35;58.13;99819.69;10409929;28;20046;-72
2023/07/27 04:29:00;;;;;;;7.47;3.50;;;;;;;30.41;57.40;99812.97;10409367;28;20041;-73
2023/07/27 04:34:01;;;;;;;6.43;2.85;;;;;;;29.68;57.01;99702.75;10410791;28;20094;-71
2023/07/27 04:39:02;;;;;;;5.60;3.00;;;;;;;30.44;56.80;99818.63;10409244;28;20045;-72
2023/07/27 04:44:02;;;;;;;5.60;3.05;;;;;;;29.83;57.09;99757.13;10409798;28;20045;-72
2023/07/27 04:49:03;;;;;;;30.30;4.13;;;;;;;30.16;56.85;99800.69;10408714;28;20050;-70
2023/07/27 04:54:04;;;;;;;7.97;3.63;;;;;;;29.49;57.32;99739.25;10409689;28;20072;-72
2023/07/27 04:59:05;;;;;;;12.05;3.45;;;;;;;29.74;58.03;99792.66;10408329;28;20148;-71
2023/07/27 05:04:06;;;;;;;9.07;3.70;;;;;;;29.41;57.97;99775.59;10408843;28;20052;-71
2023/07/27 05:09:07;;;;;;;6.55;3.65;;;;;;;29.15;58.76;99769.84;10409789;28;20132;-70
2023/07/27 05:14:08;;;;;;;9.35;3.70;;;;;;;28.63;59.41;99712.63;10409597;28;20557;-72
2023/07/27 05:19:08;;;;;;;7.05;3.72;;;;;;;28.37;61.27;99774.28;10408820;28;20045;-71
2023/07/27 05:24:09;;;;;;;10.63;4.00;;;;;;;28.00;62.62;99756.91;10408952;28;20037;-71
2023/07/27 05:29:10;;;;;;;23.33;3.70;;;;;;;27.59;62.43;99697.47;10408546;28;20037;-72
2023/07/27 05:34:11;;;;;;;7.63;3.47;;;;;;;27.89;62.73;99766.34;10408839;28;20037;-72
2023/07/27 05:39:12;;;;;;;13.35;3.40;;;;;;;27.86;62.66;99753.31;10408754;28;20034;-73
2023/07/27 05:44:12;;;;;;;5.55;3.00;;;;;;;28.21;61.32;99741.00;10408944;28;20116;-72
2023/07/27 05:49:13;;;;;;;8.43;2.90;;;;;;;28.66;60.38;99765.88;10408436;28;20048;-72
2023/07/27 05:54:14;;;;;;;14.48;3.28;;;;;;;28.69;58.50;99757.06;10408184;28;20045;-73
2023/07/27 05:59:15;;;;;;;6.22;2.85;;;;;;;28.87;58.31;99755.34;10407499;28;20054;-71
2023/07/27 06:04:16;;;;;;;9.55;2.92;;;;;;;28.95;57.77;99742.88;10406750;28;20037;-73
2023/07/27 06:09:17;;;;;;;4.45;3.10;;;;;;;28.95;57.37;99749.16;10408435;28;20469;-73
2023/07/27 06:14:19;;;;;;;8.90;2.90;;;;;;;29.00;57.15;99738.13;10407666;28;20099;-72
2023/07/27 06:19:19;;;;;;;9.05;2.80;;;;;;;29.27;56.28;99720.09;10407016;28;20086;-72
2023/07/27 06:24:20;;;;;;;8.45;2.72;;;;;;;29.31;54.98;99694.53;10406959;28;20037;-72
2023/07/27 06:29:21;;;;;;;3.88;2.47;;;;;;;29.77;54.70;99747.41;10406831;28;20048;-72
2023/07/27 06:34:22;;;;;;;11.80;2.78;;;;;;;29.92;53.33;99729.81;10406468;28;20049;-73
2023/07/27 06:39:22;;;;;;;7.60;3.00;;;;;;;29.99;52.58;99711.81;10406512;28;20520;-72
2023/07/27 06:44:23;;;;;;;13.63;3.03;;;;;;;29.90;51.60;99675.34;10406243;28;20042;-72
2023/07/27 06:49:24;;;;;;;3.38;2.65;;;;;;;30.37;51.35;99718.81;10406634;28;20041;-73
2023/07/27 06:54:25;;;;;;;3.47;2.55;;;;;;;30.67;51.56;99722.66;10406630;28;20053;-71
2023/07/27 06:59:25;;;;;;;18.05;3.92;;;;;;;30.71;51.03;99713.47;10405960;28;20458;-72
2023/07/27 07:04:26;;;;;;;11.45;3.08;;;;;;;30.37;51.02;99629.19;10405724;28;20480;-73
2023/07/27 07:09:27;;;;;;;15.38;3.17;;;;;;;31.05;49.89;99698.25;10406106;28;20042;-74
2023/07/27 07:14:27;;;;;;;8.23;2.65;;;;;;;30.78;50.44;99624.44;10407654;28;20501;-72
2023/07/27 07:19:28;;;;;;;5.82;2.83;;;;;;;31.38;49.90;99675.84;10412801;28;20041;-72
2023/07/27 07:24:29;;;;;;;8.38;2.75;;;;;;;31.18;48.83;99605.97;10412408;28;20398;-72
2023/07/27 07:29:30;;;;;;;15.27;3.40;;;;;;;31.34;47.59;99606.25;10412671;28;20148;-73
2023/07/27 07:34:33;;;;;;;9.77;3.85;;;;;;;31.89;48.00;99654.97;10412083;28;20129;-73
2023/07/27 07:39:34;;;;;;;12.05;3.05;;;;;;;32.10;46.91;99655.09;10412106;28;20038;-72
2023/07/27 07:44:34;;;;;;;10.48;3.08;;;;;;;31.94;46.75;99604.56;10411859;28;20094;-72
2023/07/27 07:49:35;;;;;;;12.35;3.25;;;;;;;32.32;46.00;99636.75;10412474;28;20392;-72
2023/07/27 07:54:36;;;;;;;10.18;3.20;;;;;;;32.33;45.70;99619.91;10412208;28;20045;-72
2023/07/27 07:59:37;;;;;;;15.82;3.60;;;;;;;32.61;45.78;99650.53;10412044;28;20045;-73
2023/07/27 08:04:38;;;;;;;10.95;3.10;;;;;;;32.64;45.21;99632.56;10411749;28;20054;-73
2023/07/27 08:09:38;;;;;;;18.95;3.30;;;;;;;32.61;44.97;99616.69;10411696;28;20041;-71
2023/07/27 08:14:39;;;;;;;11.80;3.22;;;;;;;32.86;44.31;99640.50;10408132;28;20405;-71
2023/07/27 08:19:40;;;;;;;19.55;3.38;;;;;;;32.84;44.16;99604.25;10410520;28;20052;-73
2023/07/27 08:24:41;;;;;;;25.20;4.07;;;;;;;32.86;43.92;99609.44;10389034;28;20076;-75
2023/07/27 08:29:41;;;;;;;14.98;2.97;;;;;;;32.65;43.96;99543.41;10395032;28;20041;-76
2023/07/27 08:34:42;;;;;;;19.85;3.67;;;;;;;32.46;43.47;99517.19;10388221;28;20030;-75
2023/07/27 08:39:43;;;;;;;30.63;4.03;;;;;;;33.26;43.33;99597.94;10389438;28;20038;-73
2023/07/27 08:44:45;;;;;;;16.13;3.70;;;;;;;32.99;43.55;99534.09;10395332;28;20038;-73
2023/07/27 08:49:47;;;;;;;19.42;4.35;;;;;;;33.52;42.97;99583.97;10387135;28;20097;-75
2023/07/27 08:54:48;;;;;;;15.98;3.70;;;;;;;33.17;42.77;99498.97;10389796;28;20063;-73
2023/07/27 08:59:48;;;;;;;19.48;3.92;;;;;;;33.67;42.25;99558.53;10387023;28;20445;-72
2023/07/27 09:04:49;;;;;;;16.80;3.85;;;;;;;33.64;42.28;99554.50;10393072;28;20133;-73
2023/07/27 09:09:51;;;;;;;18.58;3.88;;;;;;;33.75;42.05;99552.13;10389299;28;20481;-73
2023/07/27 09:14:52;;;;;;;15.93;3.63;;;;;;;33.58;41.22;99500.78;10386048;28;20136;-74
2023/07/27 09:19:55;;;;;;;14.18;3.67;;;;;;;34.07;41.07;99530.34;10388303;28;20124;-74
2023/07/27 09:24:58;;;;;;;16.35;3.83;;;;;;;34.03;40.78;99527.47;10393447;28;20124;-74
2023/07/27 09:29:59;;;;;;;16.45;3.58;;;;;;;34.16;41.03;99525.50;10387277;28;20038;-72
2023/07/27 09:35:00;;;;;;;12.85;3.58;;;;;;;34.30;40.02;99505.84;10393321;28;20045;-72
2023/07/27 09:40:15;;;;;;;21.65;4.00;;;;;;;34.52;39.86;99537.63;10388306;28;20037;-74
2023/07/27 09:45:16;;;;;;;26.60;3.95;;;;;;;34.47;40.51;99516.63;10394208;28;20050;-74
2023/07/27 09:50:17;;;;;;;18.90;4.07;;;;;;;34.40;40.03;99512.84;10408410;28;20037;-72
2023/07/27 09:55:18;;;;;;;15.10;3.67;;;;;;;34.08;39.14;99441.81;10408305;28;20400;-73
2023/07/27 10:00:19;;;;;;;12.47;4.27;;;;;;;34.53;39.18;99495.91;10408750;28;20033;-75
2023/07/27 10:05:22;;;;;;;16.33;4.10;;;;;;;34.70;39.00;99491.28;10407646;28;20033;-73
2023/07/27 10:10:28;;;;;;;21.55;4.38;;;;;;;34.71;37.75;99485.44;10407743;28;20041;-71
2023/07/27 10:15:29;;;;;;;27.05;4.50;;;;;;;34.80;36.93;99498.28;10408037;28;20057;-74
2023/07/27 10:20:31;;;;;;;18.50;4.72;;;;;;;34.82;36.91;99491.22;10407668;28;20048;-72
2023/07/27 10:26:00;;;;;;;20.92;4.13;;;;;;;34.94;36.51;99480.16;10406688;28;20045;-72
2023/07/27 10:31:13;;;;;;;19.23;4.32;;;;;;;35.02;35.39;99472.88;10404520;28;20402;-74
2023/07/27 10:36:15;;;;;;;38.08;5.65;;;;;;;34.88;36.17;99439.34;10407161;28;20045;-71
2023/07/27 10:41:20;;;;;;;19.35;4.00;;;;;;;35.04;35.41;99448.50;10406963;28;20097;-72
2023/07/27 10:46:22;;;;;;;18.98;4.32;;;;;;;35.03;35.79;99446.06;10407476;28;20070;-74
2023/07/27 10:51:25;;;;;;;39.25;6.32;;;;;;;35.10;35.63;99436.06;10410635;28;20045;-73
2023/07/27 10:56:27;;;;;;;25.15;4.88;;;;;;;35.03;35.48;99430.31;10413444;28;20047;-73
2023/07/27 11:01:29;;;;;;;23.38;4.40;;;;;;;34.98;35.09;99403.78;10413988;28;20089;-72
2023/07/27 11:06:30;;;;;;;18.83;4.20;;;;;;;34.92;35.56;99363.00;10413138;28;20520;-74
2023/07/27 11:11:31;;;;;;;51.33;6.07;;;;;;;35.16;34.79;99425.56;10413047;28;20037;-75
2023/07/27 11:16:37;;;;;;;28.95;5.28;;;;;;;34.66;35.15;99349.72;10413447;28;20057;-74
2023/07/27 11:21:40;;;;;;;24.52;4.40;;;;;;;34.91;34.40;99395.31;10413351;28;20033;-73
2023/07/27 11:26:41;;;;;;;37.60;4.95;;;;;;;35.01;34.43;99407.78;10412819;28;20488;-73
2023/07/27 11:31:52;;;;;;;36.53;5.43;;;;;;;35.16;34.35;99396.00;10412422;28;20037;-74
2023/07/27 11:36:58;;;;;;;37.83;5.18;;;;;;;35.36;34.01;99394.13;10411215;28;20056;-74
2023/07/27 11:42:10;;;;;;;35.88;5.22;;;;;;;35.19;33.33;99381.47;10412557;28;20184;-73
2023/07/27 11:47:11;;;;;;;31.13;5.65;;;;;;;34.76;33.81;99308.63;10412007;28;20042;-74
2023/07/27 11:52:12;;;;;;;39.13;6.38;;;;;;;35.11;34.13;99371.41;10411670;28;20048;-75
2023/07/27 11:57:15;;;;;;;27.88;6.22;;;;;;;35.16;33.34;99375.88;10411316;28;20050;-74
2023/07/27 12:02:16;;;;;;;33.58;4.97;;;;;;;35.14;33.57;99358.84;10410062;28;20396;-74
2023/07/27 12:07:18;;;;;;;27.58;5.35;;;;;;;35.07;33.32;99342.13;10411404;28;20124;-72
2023/07/27 12:12:18;;;;;;;;;;;;;;;35.38;31.17;99372.44;10411308;28;20045;-74
2023/07/27 12:17:23;;;;;;;45.27;5.67;;;;;;;35.12;33.06;99361.16;10407834;28;19921;-72
2023/07/27 12:22:23;;;;;;;37.90;5.50;;;;;;;35.10;33.26;99357.97;10411350;28;20041;-72
2023/07/27 12:27:24;;;;;;;30.08;4.93;;;;;;;34.94;32.56;99356.00;10410687;28;20548;-72
2023/07/27 12:32:25;;;;;;;45.90;5.60;;;;;;;35.02;32.70;99356.16;10410945;28;20045;-72
2023/07/27 12:37:26;;;;;;;33.88;5.28;;;;;;;34.69;33.16;99305.66;10410662;28;20053;-76
2023/07/27 12:42:26;;;;;;;21.67;5.07;;;;;;;35.06;33.59;99357.88;10410084;28;20034;-72
2023/07/27 12:47:27;;;;;;;26.58;4.78;;;;;;;34.94;33.23;99344.94;10410405;28;20045;-74
2023/07/27 12:52:28;;;;;;;20.70;4.78;;;;;;;34.63;33.11;99300.78;10400924;28;20053;-74
2023/07/27 12:57:29;;;;;;;41.50;6.47;;;;;;;34.84;33.06;99350.19;10407283;28;20049;-72
2023/07/27 13:02:29;;;;;;;25.00;5.00;;;;;;;34.36;32.75;99291.38;10409138;28;20041;-73
2023/07/27 13:07:30;;;;;;;27.98;4.72;;;;;;;34.31;33.09;99284.16;10409181;28;20033;-74
2023/07/27 13:12:31;;;;;;;28.67;5.65;;;;;;;34.45;33.49;99327.84;10408301;28;20048;-72
2023/07/27 13:17:32;;;;;;;21.38;4.60;;;;;;;34.57;33.45;99352.63;10409934;28;20064;-74
2023/07/27 13:22:33;;;;;;;32.72;5.50;;;;;;;34.18;34.16;99268.84;10409471;28;20041;-72
2023/07/27 13:27:34;;;;;;;21.65;4.57;;;;;;;34.56;33.49;99326.22;10408614;28;20089;-74
2023/07/27 13:32:35;;;;;;;31.83;5.40;;;;;;;34.47;34.25;99333.81;10407551;28;20046;-72
2023/07/27 13:37:36;;;;;;;36.15;5.97;;;;;;;34.30;34.33;99337.69;10408136;28;20042;-72
2023/07/27 13:42:36;;;;;;;41.70;5.72;;;;;;;33.76;34.18;99252.69;10408566;28;20128;-73
2023/07/27 13:47:37;;;;;;;25.52;4.75;;;;;;;34.11;34.85;99332.84;10408433;28;20049;-72
2023/07/27 13:52:38;;;;;;;47.03;6.53;;;;;;;33.70;35.36;99265.09;10408095;28;20396;-73
2023/07/27 13:57:38;;;;;;;25.90;4.63;;;;;;;33.82;35.02;99303.63;10406031;28;20486;-72
2023/07/27 14:02:39;;;;;;;39.08;5.78;;;;;;;33.85;35.46;99311.19;10391456;28;20078;-74
2023/07/27 14:07:40;;;;;;;34.60;5.15;;;;;;;33.12;35.75;99211.06;10386392;28;20042;-73
2023/07/27 14:12:41;;;;;;;26.88;5.03;;;;;;;33.78;35.61;99333.03;10389924;28;20097;-74
2023/07/27 14:17:42;;;;;;;25.90;5.78;;;;;;;33.68;35.89;99323.28;10388469;28;20064;-76
2023/07/27 14:22:43;;;;;;;31.45;6.13;;;;;;;33.60;35.68;99316.75;10392017;28;20052;-77
2023/07/27 14:27:44;;;;;;;24.63;5.57;;;;;;;33.43;35.52;99333.50;10390604;28;20041;-75
2023/07/27 14:32:45;;;;;;;20.92;5.18;;;;;;;33.00;35.91;99260.59;10383680;28;20045;-74
2023/07/27 14:37:45;;;;;;;31.42;4.93;;;;;;;33.27;36.05;99316.09;10396519;28;20056;-74
2023/07/27 14:42:46;;;;;;;34.42;5.53;;;;;;;33.18;35.82;99316.22;10386381;28;20038;-76
2023/07/27 14:47:49;;;;;;;33.67;5.40;;;;;;;33.06;36.08;99328.00;10384249;28;20086;-74
2023/07/27 14:52:49;;;;;;;;;;;;;;;33.21;36.01;99331.19;10391906;28;20124;-73
2023/07/27 14:57:50;;;;;;;36.80;5.70;;;;;;;32.59;36.80;99273.38;10407097;28;20035;-78
2023/07/27 15:02:51;;;;;;;37.95;5.40;;;;;;;32.61;37.31;99303.25;10406443;28;20485;-74
2023/07/27 15:07:51;;;;;;;40.33;5.80;;;;;;;32.65;37.46;99326.19;10405758;28;20033;-73
2023/07/27 15:12:52;;;;;;;31.05;4.72;;;;;;;32.50;38.08;99333.16;10405507;28;20083;-73
2023/07/27 15:17:53;;;;;;;25.27;5.55;;;;;;;32.36;37.59;99335.34;10407380;28;20090;-73
2023/07/27 15:22:54;;;;;;;29.85;6.03;;;;;;;32.21;37.73;99329.34;10404695;28;20037;-72
2023/07/27 15:27:55;;;;;;;34.72;5.00;;;;;;;32.09;38.10;99336.72;10404782;28;20073;-72
2023/07/27 15:32:55;;;;;;;32.95;4.43;;;;;;;31.43;38.06;99255.00;10406296;28;20041;-75
2023/07/27 15:37:56;;;;;;;17.42;4.53;;;;;;;31.41;38.91;99292.94;10410389;28;20046;-73
2023/07/27 15:42:57;;;;;;;23.08;4.45;;;;;;;31.50;38.73;99332.09;10411989;28;20515;-73
2023/07/27 15:47:58;;;;;;;30.60;4.82;;;;;;;31.28;38.58;99335.91;10412341;28;20049;-72
2023/07/27 15:52:59;;;;;;;30.42;5.60;;;;;;;31.02;39.34;99341.50;10412894;28;20041;-71
2023/07/27 15:58:00;;;;;;;18.27;4.55;;;;;;;30.14;39.25;99217.59;10412725;28;20033;-71
2023/07/27 16:03:01;;;;;;;23.25;4.30;;;;;;;30.75;39.68;99343.50;10412317;28;20041;-72
2023/07/27 16:08:02;;;;;;;28.38;4.88;;;;;;;29.93;39.55;99244.84;10412334;28;20041;-72
2023/07/27 16:13:02;;;;;;;19.23;4.30;;;;;;;30.43;39.71;99345.69;10411281;28;20136;-71
2023/07/27 16:18:03;;;;;;;25.27;4.40;;;;;;;30.20;40.11;99344.22;10410804;28;20077;-72
2023/07/27 16:23:04;;;;;;;32.75;5.43;;;;;;;29.94;40.38;99342.25;10411903;28;20042;-73
2023/07/27 16:28:05;;;;;;;17.65;4.38;;;;;;;29.81;40.81;99351.44;10410539;28;20052;-71
2023/07/27 16:33:06;;;;;;;12.88;3.85;;;;;;;29.53;40.89;99350.91;10409702;28;20497;-71
2023/07/27 16:38:06;;;;;;;17.15;3.63;;;;;;;29.03;41.24;99291.84;10402312;28;20046;-71
2023/07/27 16:43:07;;;;;;;18.65;4.43;;;;;;;28.55;41.36;99243.38;10410600;28;20120;-71
2023/07/27 16:48:08;;;;;;;20.08;4.03;;;;;;;29.12;41.62;99368.44;10406925;28;20037;-72
2023/07/27 16:53:08;;;;;;;15.35;3.40;;;;;;;28.91;42.02;99368.16;10410372;28;20084;-73
2023/07/27 16:58:10;;;;;;;14.45;3.63;;;;;;;28.79;42.42;99367.94;10409849;28;20045;-71
2023/07/27 17:03:11;;;;;;;21.02;3.97;;;;;;;28.50;42.58;99363.72;10410131;28;20030;-72
2023/07/27 17:08:11;;;;;;;12.18;3.30;;;;;;;28.50;42.53;99385.56;10408916;28;20046;-72
2023/07/27 17:13:12;;;;;;;16.40;3.90;;;;;;;28.40;42.96;99386.59;10404767;28;20062;-71
2023/07/27 17:18:13;;;;;;;9.00;3.58;;;;;;;27.90;43.18;99333.97;10408973;28;20049;-71
2023/07/27 17:23:14;;;;;;;8.50;3.22;;;;;;;28.21;43.23;99397.69;10408424;28;20118;-71
2023/07/27 17:28:15;;;;;;;15.10;3.20;;;;;;;28.13;43.38;99409.34;10409042;28;20045;-72
2023/07/27 17:33:15;;;;;;;13.13;3.95;;;;;;;27.50;44.20;99331.00;10408174;28;20033;-71
2023/07/27 17:38:16;;;;;;;13.05;3.45;;;;;;;27.58;43.84;99356.75;10408765;28;20045;-71
2023/07/27 17:43:17;;;;;;;10.23;3.08;;;;;;;27.83;44.27;99416.28;10406428;28;20550;-70
2023/07/27 17:48:23;;;;;;;9.13;3.10;;;;;;;27.75;44.44;99412.31;10408335;28;20045;-71
2023/07/27 17:53:26;;;;;;;12.88;3.70;;;;;;;27.53;44.72;99384.94;10407185;28;20037;-71
2023/07/27 17:58:26;;;;;;;23.98;3.70;;;;;;;27.50;44.88;99402.72;10404933;28;20113;-71
2023/07/27 18:03:27;;;;;;;13.68;3.58;;;;;;;27.36;44.97;99395.66;10407454;28;20390;-71
2023/07/27 18:08:28;;;;;;;12.35;3.88;;;;;;;27.16;45.81;99381.28;10407360;28;20505;-71
2023/07/27 18:13:29;;;;;;;13.52;3.28;;;;;;;27.20;46.05;99401.41;10406985;28;20053;-71
2023/07/27 18:18:29;;;;;;;17.17;3.40;;;;;;;27.09;46.95;99397.22;10407555;28;20094;-70
2023/07/27 18:23:30;;;;;;;17.60;8.80;;;;;;;26.90;46.90;99385.56;10407750;28;20042;-70
2023/07/27 18:28:31;;;;;;;14.02;4.20;;;;;;;26.74;46.54;99364.03;10407498;28;20042;-70
2023/07/27 18:33:32;;;;;;;12.98;5.47;;;;;;;26.74;47.35;99374.91;10407011;28;20041;-71
2023/07/27 18:38:33;;;;;;;14.73;3.83;;;;;;;26.64;48.21;99380.56;10406212;28;20374;-71
2023/07/27 18:43:34;;;;;;;8.32;3.08;;;;;;;26.55;48.81;99372.25;10405343;28;20046;-72
2023/07/27 18:48:35;;;;;;;14.15;3.13;;;;;;;26.44;49.60;99359.06;10406837;28;20037;-71
2023/07/27 18:53:35;;;;;;;8.68;2.85;;;;;;;26.35;50.06;99370.63;10406791;28;20044;-71
2023/07/27 18:58:36;;;;;;;10.90;3.15;;;;;;;25.72;51.17;99281.19;10405150;28;20132;-71
2023/07/27 19:03:37;;;;;;;9.88;3.33;;;;;;;26.07;51.86;99358.00;10406513;28;20037;-71
2023/07/27 19:08:39;;;;;;;10.27;3.10;;;;;;;25.92;52.33;99350.88;10406945;28;20502;-71
2023/07/27 19:13:40;;;;;;;7.55;3.30;;;;;;;25.72;53.24;99328.22;10413569;28;20061;-71
2023/07/27 19:18:41;;;;;;;10.23;3.05;;;;;;;25.74;53.78;99341.56;10412659;28;20413;-71
2023/07/27 19:23:42;;;;;;;8.43;2.80;;;;;;;25.63;54.10;99345.50;10412040;28;20525;-71
2023/07/27 19:28:42;;;;;;;10.68;3.28;;;;;;;24.77;54.58;99209.56;10413619;28;20090;-73
2023/07/27 19:33:47;;;;;;;11.05;3.17;;;;;;;25.17;54.71;99267.25;10412024;28;20041;-74
2023/07/27 19:38:48;;;;;;;8.45;3.50;;;;;;;25.13;55.29;99256.16;10412517;28;20137;-72
2023/07/27 19:43:49;;;;;;;8.68;3.13;;;;;;;25.47;55.27;99310.34;10412482;28;20033;-72
2023/07/27 19:48:50;;;;;;;13.40;3.30;;;;;;;25.39;55.75;99302.84;10411971;28;20045;-71
2023/07/27 19:53:51;;;;;;;11.43;3.42;;;;;;;25.40;55.69;99299.03;10412239;28;20041;-71
2023/07/27 19:58:51;;;;;;;6.55;3.58;;;;;;;24.87;56.08;99231.16;10412339;28;20038;-71
2023/07/27 20:03:52;;;;;;;11.55;3.42;;;;;;;25.33;56.69;99295.84;10411030;28;20037;-72
2023/07/27 20:08:53;;;;;;;16.23;3.28;;;;;;;25.12;56.94;99275.44;10411196;28;20041;-71
2023/07/27 20:13:54;;;;;;;9.48;3.00;;;;;;;25.22;57.29;99292.47;10411016;28;20062;-71
2023/07/27 20:18:55;;;;;;;7.75;3.17;;;;;;;24.98;57.77;99275.34;10411774;28;20078;-72
2023/07/27 20:23:56;;;;;;;7.38;3.20;;;;;;;25.02;58.11;99273.66;10409700;28;20049;-72
2023/07/27 20:28:56;;;;;;;12.20;3.53;;;;;;;24.49;58.70;99197.63;10410521;28;20508;-72
2023/07/27 20:33:57;;;;;;;15.10;3.42;;;;;;;24.49;59.47;99198.44;10409863;28;20137;-71
2023/07/27 20:38:58;;;;;;;6.97;3.22;;;;;;;24.85;61.11;99262.44;10411267;28;20049;-72
2023/07/27 20:43:59;;;;;;;9.90;2.95;;;;;;;24.70;61.90;99253.34;10410880;28;20489;-72
2023/07/27 20:49:00;;;;;;;9.93;3.65;;;;;;;24.64;63.05;99265.34;10411070;28;20037;-72
2023/07/27 20:54:01;;;;;;;7.78;3.03;;;;;;;24.58;63.69;99264.59;10409766;28;20045;-72
2023/07/27 20:59:01;;;;;;;12.70;3.78;;;;;;;24.52;64.65;99256.78;10410400;28;20049;-71
2023/07/27 21:04:02;;;;;;;10.30;3.67;;;;;;;24.31;65.93;99242.56;10410526;28;20042;-71
2023/07/27 21:09:03;;;;;;;5.53;2.92;;;;;;;23.98;66.07;99187.25;10409166;28;20136;-72
2023/07/27 21:14:04;;;;;;;7.75;3.13;;;;;;;23.66;66.99;99148.72;10409537;28;20058;-72
2023/07/27 21:19:04;;;;;;;7.18;3.53;;;;;;;24.16;67.88;99248.94;10409409;28;20501;-71
2023/07/27 21:24:05;;;;;;;5.40;3.53;;;;;;;24.05;69.03;99231.13;10410131;28;20053;-71
2023/07/27 21:29:06;;;;;;;5.07;3.38;;;;;;;23.54;69.46;99161.78;10408611;28;20045;-72
2023/07/27 21:34:10;;;;;;;9.13;3.75;;;;;;;23.87;69.84;99221.78;10408179;28;20512;-71
2023/07/27 21:39:15;;;;;;;5.70;3.30;;;;;;;23.68;70.46;99192.59;10408283;28;20413;-71
2023/07/27 21:44:16;;;;;;;5.50;3.28;;;;;;;23.87;71.42;99233.44;10409455;28;20450;-72
2023/07/27 21:49:17;;;;;;;5.25;3.70;;;;;;;23.54;72.83;99196.22;10408623;28;20128;-72
2023/07/27 21:54:18;;;;;;;6.95;3.92;;;;;;;23.41;73.72;99189.53;10408576;28;20041;-72
2023/07/27 21:59:18;;;;;;;4.95;3.40;;;;;;;23.20;75.43;99167.16;10408366;28;20132;-72
2023/07/27 22:04:19;;;;;;;5.47;3.75;;;;;;;22.88;75.91;99113.41;10407451;28;20056;-73
2023/07/27 22:09:20;;;;;;;7.47;3.95;;;;;;;23.14;76.72;99160.97;10407930;28;20492;-73
2023/07/27 22:14:20;;;;;;;7.25;4.22;;;;;;;22.97;77.54;99123.44;10407375;28;20064;-72
2023/07/27 22:19:21;;;;;;;9.70;4.65;;;;;;;23.07;77.92;99119.03;10406352;28;20053;-72
2023/07/27 22:24:22;;;;;;;11.20;4.15;;;;;;;23.08;77.95;99105.22;10406223;28;20496;-71
2023/07/27 22:29:23;;;;;;;7.38;4.32;;;;;;;23.02;78.90;99087.38;10407251;28;20041;-72
2023/07/27 22:34:24;;;;;;;9.82;4.13;;;;;;;23.00;78.79;99078.72;10407873;28;20069;-71
2023/07/27 22:39:25;;;;;;;7.22;4.20;;;;;;;22.89;79.29;99080.66;10407173;28;20089;-72
2023/07/27 22:44:26;;;;;;;7.35;4.35;;;;;;;23.04;79.44;99115.00;10407055;28;20408;-71
2023/07/27 22:49:27;;;;;;;6.32;4.38;;;;;;;23.04;79.66;99119.59;10414804;28;20041;-72
2023/07/27 22:54:28;;;;;;;7.22;4.22;;;;;;;22.97;80.05;99118.00;10413643;28;20046;-72
2023/07/27 22:59:29;;;;;;;6.13;4.80;;;;;;;22.92;80.34;99128.03;10412718;28;20408;-72
2023/07/27 23:04:30;;;;;;;7.70;4.90;;;;;;;22.87;80.45;99130.75;10413385;28;20033;-72
2023/07/27 23:09:31;;;;;;;7.53;5.10;;;;;;;22.34;81.20;99058.16;10413061;28;20038;-72